Time;durP1;ratioP1;P1;durP2;ratioP2;P2;SDS_P1;SDS_P2;PMS_P1;PMS_P2;Temp;Humidity;BMP_temperature;BMP_pressure;BME280_temperature;BME280_humidity;BME280_pressure;Samples;Min_cycle;Max_cycle;Signal;HPM_P1;HPM_P2
2023/07/04 00:01:04;;;;;;;3.97;2.10;;;20.80;58.40;;;;;;5007567;28;20022;-65
2023/07/04 00:03:31;;;;;;;2.83;1.90;;;20.80;58.40;;;;;;5001151;28;20022;-65
2023/07/04 00:05:57;;;;;;;3.13;1.88;;;20.80;58.40;;;;;;5007530;28;20022;-66
2023/07/04 00:08:25;;;;;;;2.75;2.35;;;20.80;58.50;;;;;;5004655;28;20036;-65
2023/07/04 00:10:51;;;;;;;2.53;1.98;;;20.90;59.20;;;;;;5005327;28;20517;-65
2023/07/04 00:13:18;;;;;;;2.75;1.92;;;20.80;58.40;;;;;;5005313;28;20026;-65
2023/07/04 00:15:45;;;;;;;4.45;1.85;;;20.80;58.40;;;;;;5006464;28;20069;-66
2023/07/04 00:18:10;;;;;;;3.45;2.10;;;20.80;58.40;;;;;;5007500;28;20646;-66
2023/07/04 00:20:37;;;;;;;2.72;1.80;;;20.80;58.50;;;;;;5006659;28;20034;-66
2023/07/04 00:23:02;;;;;;;2.30;1.70;;;20.80;58.50;;;;;;5006771;28;20022;-65
2023/07/04 00:25:28;;;;;;;3.72;1.90;;;20.80;58.40;;;;;;5005261;28;20033;-65
2023/07/04 00:27:54;;;;;;;2.05;1.63;;;20.80;58.60;;;;;;5008031;28;20401;-65
2023/07/04 00:30:20;;;;;;;3.03;1.90;;;20.80;58.50;;;;;;5005945;28;20030;-66
2023/07/04 00:32:45;;;;;;;3.20;2.15;;;20.80;58.50;;;;;;5006406;28;20033;-65
2023/07/04 00:35:11;;;;;;;3.03;2.13;;;20.80;58.60;;;;;;5004410;28;20038;-63
2023/07/04 00:37:37;;;;;;;3.33;2.00;;;20.80;58.50;;;;;;5003315;28;20025;-66
2023/07/04 00:40:07;;;;;;;3.65;2.22;;;20.80;58.70;;;;;;5005597;28;20029;-65
2023/07/04 00:42:35;;;;;;;3.03;2.03;;;20.80;58.50;;;;;;5002222;28;20038;-65
2023/07/04 00:45:09;;;;;;;3.20;1.63;;;20.80;58.60;;;;;;5003810;28;20117;-66
2023/07/04 00:47:43;;;;;;;3.38;1.95;;;20.80;58.60;;;;;;5004335;28;20515;-65
2023/07/04 00:50:10;;;;;;;2.72;1.70;;;20.80;58.60;;;;;;5005822;28;20029;-66
2023/07/04 00:52:37;;;;;;;3.95;1.90;;;20.80;58.60;;;;;;5004275;28;20038;-66
2023/07/04 00:55:08;;;;;;;5.57;2.25;;;20.80;58.80;;;;;;5005579;28;20042;-66
2023/07/04 00:57:33;;;;;;;2.38;1.52;;;20.80;58.60;;;;;;5002312;28;20149;-66
2023/07/04 01:00:14;;;;;;;2.47;1.58;;;20.80;58.60;;;;;;5004689;28;20117;-66
2023/07/04 01:02:40;;;;;;;3.97;1.92;;;20.80;58.60;;;;;;5002851;28;20073;-66
2023/07/04 01:05:06;;;;;;;2.60;1.70;;;20.70;58.60;;;;;;5004878;28;20116;-66
2023/07/04 01:07:48;;;;;;;2.05;1.52;;;20.70;58.60;;;;;;5003580;28;20033;-65
2023/07/04 01:10:36;;;;;;;3.88;1.92;;;20.80;58.80;;;;;;5004838;28;20033;-66
2023/07/04 01:13:01;;;;;;;3.03;2.10;;;20.70;58.60;;;;;;5004070;28;20150;-65
2023/07/04 01:15:30;;;;;;;2.80;1.75;;;20.80;58.70;;;;;;4996596;28;20507;-66
2023/07/04 01:17:59;;;;;;;2.47;1.75;;;20.80;58.80;;;;;;5035674;28;20113;-66
2023/07/04 01:20:24;;;;;;;1.98;1.65;;;20.70;58.70;;;;;;5004709;28;20048;-66
2023/07/04 01:23:11;;;;;;;2.70;1.83;;;20.80;58.80;;;;;;5005920;28;20037;-66
2023/07/04 01:25:41;;;;;;;4.18;1.70;;;20.70;58.60;;;;;;5002923;28;20034;-66
2023/07/04 01:28:08;;;;;;;2.95;1.77;;;20.70;58.60;;;;;;5005626;28;20026;-66
2023/07/04 01:30:38;;;;;;;1.92;1.52;;;20.70;58.80;;;;;;5005105;28;20061;-66
2023/07/04 01:33:05;;;;;;;2.08;1.60;;;20.70;58.60;;;;;;5005328;28;20549;-65
2023/07/04 01:35:33;;;;;;;2.45;1.38;;;20.70;58.70;;;;;;5004845;28;20049;-65
2023/07/04 01:37:59;;;;;;;3.10;1.70;;;20.70;58.70;;;;;;5005384;28;20041;-66
2023/07/04 01:40:25;;;;;;;3.17;1.90;;;20.70;58.80;;;;;;5005666;28;20038;-66
2023/07/04 01:42:51;;;;;;;2.05;1.52;;;20.70;58.80;;;;;;4987420;28;20033;-66
2023/07/04 01:45:18;;;;;;;2.00;1.40;;;20.70;58.80;;;;;;5007664;28;20040;-65
2023/07/04 01:47:44;;;;;;;2.25;1.40;;;20.70;58.70;;;;;;5009050;28;20041;-65
2023/07/04 01:50:11;;;;;;;2.35;1.33;;;20.70;58.70;;;;;;5011037;28;20075;-65
2023/07/04 01:52:37;;;;;;;2.05;1.48;;;20.70;58.70;;;;;;5005440;28;20030;-65
2023/07/04 01:55:03;;;;;;;2.05;1.45;;;20.70;58.80;;;;;;5002479;28;20030;-65
2023/07/04 01:57:28;;;;;;;2.42;1.50;;;20.70;58.80;;;;;;5004161;28;20034;-65
2023/07/04 01:59:54;;;;;;;2.45;1.88;;;20.70;58.80;;;;;;5004104;28;20080;-65
2023/07/04 02:02:19;;;;;;;1.58;1.30;;;20.70;58.70;;;;;;5005587;28;20404;-66
2023/07/04 02:04:45;;;;;;;1.58;1.23;;;20.70;58.90;;;;;;5004043;28;20089;-66
2023/07/04 02:07:13;;;;;;;3.00;1.48;;;20.70;58.80;;;;;;5004967;28;20022;-65
2023/07/04 02:09:39;;;;;;;1.48;1.20;;;20.70;59.50;;;;;;5004394;28;20053;-65
2023/07/04 02:12:05;;;;;;;3.88;1.92;;;20.70;58.90;;;;;;5021434;28;20656;-66
2023/07/04 02:14:30;;;;;;;2.38;1.70;;;20.60;58.90;;;;;;5009612;28;20065;-65
2023/07/04 02:16:56;;;;;;;1.88;1.60;;;20.70;59.00;;;;;;5005085;28;20026;-67
2023/07/04 02:19:21;;;;;;;1.90;1.63;;;20.60;59.00;;;;;;5005172;28;20038;-66
2023/07/04 02:21:47;;;;;;;1.40;1.17;;;20.60;59.00;;;;;;4999533;28;20048;-66
2023/07/04 02:24:12;;;;;;;1.77;1.40;;;20.70;59.10;;;;;;4999210;28;20457;-65
2023/07/04 02:26:39;;;;;;;1.67;1.25;;;20.60;59.10;;;;;;5003414;28;20046;-65
2023/07/04 02:29:04;;;;;;;2.42;1.55;;;20.60;59.00;;;;;;5002150;28;20117;-66
2023/07/04 02:31:30;;;;;;;1.85;1.40;;;20.60;59.00;;;;;;5004442;28;20156;-65
2023/07/04 02:33:55;;;;;;;2.08;1.33;;;20.60;59.00;;;;;;5002586;28;20057;-65
2023/07/04 02:36:21;;;;;;;2.38;1.50;;;20.60;59.10;;;;;;4997931;28;20046;-65
2023/07/04 02:38:47;;;;;;;1.88;1.40;;;20.60;59.10;;;;;;5003211;28;20041;-66
2023/07/04 02:41:13;;;;;;;1.98;1.25;;;20.60;59.20;;;;;;5005123;28;20033;-66
2023/07/04 02:43:38;;;;;;;1.67;1.42;;;20.60;59.20;;;;;;5002425;28;20421;-65
2023/07/04 02:46:06;;;;;;;1.80;1.30;;;20.60;59.20;;;;;;5003728;28;20509;-65
2023/07/04 02:48:32;;;;;;;1.67;1.40;;;20.60;59.20;;;;;;5001709;28;20034;-65
2023/07/04 02:50:58;;;;;;;1.60;1.33;;;20.60;59.20;;;;;;5002205;28;20030;-66
2023/07/04 02:53:23;;;;;;;1.80;1.50;;;20.60;59.30;;;;;;5003335;28;20034;-66
2023/07/04 02:55:51;;;;;;;2.28;1.50;;;20.60;59.30;;;;;;5001785;28;20022;-65
2023/07/04 02:58:17;;;;;;;1.70;1.30;;;20.60;59.30;;;;;;4998160;28;20053;-66
2023/07/04 03:00:43;;;;;;;1.60;1.30;;;20.60;59.30;;;;;;5000132;28;20026;-66
2023/07/04 03:03:09;;;;;;;2.38;1.55;;;20.60;59.30;;;;;;5002428;28;20030;-65
2023/07/04 03:05:36;;;;;;;1.50;1.40;;;20.60;59.90;;;;;;5001868;28;20034;-65
2023/07/04 03:08:05;;;;;;;2.15;1.55;;;20.60;59.40;;;;;;5004156;28;20547;-65
2023/07/04 03:10:31;;;;;;;2.83;1.58;;;20.60;59.30;;;;;;4999916;28;20038;-65
2023/07/04 03:12:56;;;;;;;3.20;1.23;;;20.60;59.40;;;;;;5004443;28;20037;-66
2023/07/04 03:15:22;;;;;;;1.92;1.42;;;20.60;59.60;;;;;;5003570;28;20033;-65
2023/07/04 03:17:48;;;;;;;1.70;1.10;;;20.60;59.60;;;;;;4998320;28;20053;-66
2023/07/04 03:20:14;;;;;;;2.15;1.50;;;20.60;59.60;;;;;;5004101;28;20029;-65
2023/07/04 03:22:41;;;;;;;2.30;1.65;;;20.60;59.50;;;;;;5001232;28;20041;-67
2023/07/04 03:25:07;;;;;;;2.17;1.50;;;20.60;59.50;;;;;;5001475;28;20030;-66
2023/07/04 03:27:35;;;;;;;1.73;1.33;;;20.60;59.70;;;;;;4999556;28;20030;-66
2023/07/04 03:30:01;;;;;;;3.13;1.60;;;20.60;59.50;;;;;;5001566;28;20030;-66
2023/07/04 03:32:26;;;;;;;2.15;1.35;;;20.60;59.80;;;;;;5002272;28;20064;-65
2023/07/04 03:34:52;;;;;;;2.45;1.30;;;20.60;60.30;;;;;;5001840;28;20044;-66
2023/07/04 03:37:17;;;;;;;2.30;1.58;;;20.60;59.70;;;;;;5002699;28;20030;-65
2023/07/04 03:39:43;;;;;;;3.00;1.30;;;20.60;59.70;;;;;;5002127;28;20056;-65
2023/07/04 03:42:09;;;;;;;1.58;1.40;;;20.60;59.70;;;;;;5000995;28;20438;-59
2023/07/04 03:44:34;;;;;;;1.67;1.23;;;20.60;59.60;;;;;;5002174;28;20044;-65
2023/07/04 03:46:59;;;;;;;1.30;1.10;;;20.60;59.70;;;;;;5001222;28;20030;-65
2023/07/04 03:49:26;;;;;;;1.70;1.55;;;20.60;59.60;;;;;;5002452;28;20026;-58
2023/07/04 03:51:52;;;;;;;2.22;1.60;;;20.60;59.70;;;;;;5001595;28;20029;-72
2023/07/04 03:54:17;;;;;;;2.17;1.25;;;20.60;59.60;;;;;;5000062;28;20478;-65
2023/07/04 03:56:43;;;;;;;1.73;1.27;;;20.60;59.60;;;;;;4999770;28;20236;-66
2023/07/04 03:59:08;;;;;;;2.00;1.48;;;20.60;59.60;;;;;;5000949;28;20049;-66
2023/07/04 04:01:34;;;;;;;1.70;1.35;;;20.60;59.70;;;;;;5000850;28;20045;-64
2023/07/04 04:03:59;;;;;;;1.60;1.20;;;20.70;59.80;;;;;;5000873;28;20030;-65
2023/07/04 04:06:25;;;;;;;1.95;1.02;;;20.60;59.70;;;;;;5003192;28;20042;-66
2023/07/04 04:08:50;;;;;;;1.50;1.33;;;20.70;59.70;;;;;;5000638;28;20041;-66
2023/07/04 04:11:16;;;;;;;2.90;1.42;;;20.60;59.60;;;;;;5003023;28;20330;-65
2023/07/04 04:13:41;;;;;;;2.00;1.20;;;20.60;59.60;;;;;;5001930;28;20037;-66
2023/07/04 04:16:07;;;;;;;1.92;1.35;;;20.70;59.60;;;;;;5002836;28;20121;-66
2023/07/04 04:18:32;;;;;;;3.25;1.38;;;20.60;60.50;;;;;;5001639;28;20137;-66
2023/07/04 04:20:58;;;;;;;2.17;1.35;;;20.60;59.80;;;;;;5000411;28;20082;-67
2023/07/04 04:23:23;;;;;;;1.80;1.38;;;20.70;59.70;;;;;;5001661;28;20104;-66
2023/07/04 04:25:49;;;;;;;2.70;1.88;;;20.60;59.70;;;;;;5000773;28;20026;-65
2023/07/04 04:28:14;;;;;;;1.58;1.17;;;20.70;59.70;;;;;;5000302;28;20117;-66
2023/07/04 04:30:40;;;;;;;1.80;1.45;;;20.70;59.70;;;;;;5002195;28;20060;-65
2023/07/04 04:33:06;;;;;;;2.33;1.52;;;20.70;59.90;;;;;;5002676;28;20026;-65
2023/07/04 04:35:32;;;;;;;1.63;1.25;;;20.70;60.00;;;;;;5002796;28;20041;-65
2023/07/04 04:37:58;;;;;;;1.75;1.38;;;20.70;60.10;;;;;;5001471;28;20057;-66
2023/07/04 04:40:24;;;;;;;1.63;1.38;;;20.70;60.10;;;;;;5005583;28;20504;-66
2023/07/04 04:42:55;;;;;;;2.50;1.50;;;20.70;60.10;;;;;;5002325;28;20026;-66
2023/07/04 04:45:21;;;;;;;1.88;1.30;;;20.70;60.10;;;;;;5003260;28;20097;-66
2023/07/04 04:47:52;;;;;;;2.42;1.48;;;20.70;60.00;;;;;;5005292;28;20036;-65
2023/07/04 04:50:19;;;;;;;1.45;1.20;;;20.70;59.90;;;;;;5005934;28;20447;-66
2023/07/04 04:52:45;;;;;;;1.73;1.38;;;20.70;59.70;;;;;;4999060;28;20449;-66
2023/07/04 04:55:10;;;;;;;2.08;1.40;;;20.80;59.70;;;;;;5004198;28;20532;-62
2023/07/04 04:57:36;;;;;;;3.67;1.60;;;20.80;59.60;;;;;;5004328;28;20038;-66
2023/07/04 05:00:02;;;;;;;3.50;1.60;;;20.80;59.70;;;;;;5005695;28;20040;-66
2023/07/04 05:02:31;;;;;;;2.03;1.40;;;20.80;59.80;;;;;;5007663;28;20177;-64
2023/07/04 05:04:59;;;;;;;2.38;1.58;;;20.80;59.80;;;;;;5005486;28;21545;-66
2023/07/04 05:07:25;;;;;;;2.67;1.52;;;20.80;59.80;;;;;;5005538;28;20230;-66
2023/07/04 05:09:53;;;;;;;3.30;1.48;;;20.80;59.90;;;;;;5004524;28;20030;-65
2023/07/04 05:12:19;;;;;;;3.65;1.92;;;20.90;59.80;;;;;;5004363;28;20045;-66
2023/07/04 05:14:44;;;;;;;2.80;1.42;;;20.90;59.90;;;;;;5003343;28;20022;-65
2023/07/04 05:17:10;;;;;;;3.72;1.60;;;20.90;59.80;;;;;;5004217;28;20436;-66
2023/07/04 05:19:35;;;;;;;2.20;1.50;;;20.90;60.00;;;;;;5001388;28;20045;-66
2023/07/04 05:22:01;;;;;;;1.60;1.20;;;20.90;60.10;;;;;;5001415;28;20125;-64
2023/07/04 05:24:26;;;;;;;2.70;1.50;;;20.90;60.00;;;;;;5006613;28;20037;-67
2023/07/04 05:26:52;;;;;;;2.45;1.30;;;20.90;59.90;;;;;;5002802;28;20038;-66
2023/07/04 05:29:17;;;;;;;2.95;1.50;;;20.90;60.00;;;;;;5004914;28;20088;-70
2023/07/04 05:31:43;;;;;;;4.05;1.48;;;20.90;60.00;;;;;;5004815;28;20631;-66
2023/07/04 05:34:08;;;;;;;2.25;1.50;;;20.90;60.20;;;;;;5004986;28;20033;-66
2023/07/04 05:36:34;;;;;;;2.22;1.45;;;21.00;60.10;;;;;;5019781;28;20052;-72
2023/07/04 05:39:02;;;;;;;2.20;1.23;;;20.90;59.90;;;;;;5009990;28;20044;-67
2023/07/04 05:41:30;;;;;;;2.47;1.50;;;20.90;60.20;;;;;;5004999;28;20117;-65
2023/07/04 05:43:58;;;;;;;4.75;1.83;;;21.00;60.10;;;;;;4994062;28;20522;-67
2023/07/04 05:46:24;;;;;;;2.92;1.52;;;21.00;60.20;;;;;;5004365;28;20042;-66
2023/07/04 05:48:50;;;;;;;3.58;1.83;;;21.00;60.30;;;;;;5004483;28;20038;-64
2023/07/04 05:51:17;;;;;;;2.63;1.83;;;21.00;60.10;;;;;;5007392;28;20026;-66
2023/07/04 05:53:47;;;;;;;3.10;1.92;;;21.00;59.80;;;;;;5005568;28;20642;-61
2023/07/04 05:56:15;;;;;;;2.75;1.58;;;21.00;60.00;;;;;;5006264;28;20045;-64
2023/07/04 05:58:43;;;;;;;3.03;1.70;;;21.00;60.30;;;;;;5006625;28;20053;-63
2023/07/04 06:01:12;;;;;;;2.70;2.25;;;21.00;60.10;;;;;;5006787;28;20018;-65
2023/07/04 06:03:38;;;;;;;2.80;1.98;;;21.00;60.20;;;;;;5004083;28;20083;-64
2023/07/04 06:06:06;;;;;;;3.83;2.33;;;21.00;60.20;;;;;;5004884;28;20026;-63
2023/07/04 06:08:33;;;;;;;4.03;2.20;;;21.00;60.10;;;;;;5004204;28;20022;-67
2023/07/04 06:11:03;;;;;;;3.63;2.05;;;21.00;60.20;;;;;;5007922;28;20170;-66
2023/07/04 06:13:28;;;;;;;2.85;2.08;;;21.00;60.00;;;;;;4993293;28;20034;-64
2023/07/04 06:15:54;;;;;;;2.80;2.20;;;21.00;60.00;;;;;;4998680;28;20029;-65
2023/07/04 06:18:20;;;;;;;3.88;2.20;;;21.00;60.30;;;;;;5002472;28;20046;-63
2023/07/04 06:20:45;;;;;;;3.05;2.42;;;21.00;60.10;;;;;;5004615;28;20034;-63
2023/07/04 06:23:11;;;;;;;3.58;2.53;;;21.00;60.00;;;;;;5003280;28;20104;-64
2023/07/04 06:25:36;;;;;;;4.57;2.63;;;21.00;60.20;;;;;;5004726;28;20033;-64
2023/07/04 06:28:02;;;;;;;3.10;2.45;;;21.00;60.30;;;;;;5003719;28;20026;-64
2023/07/04 06:30:31;;;;;;;3.97;2.33;;;21.00;60.10;;;;;;5003763;28;20404;-63
2023/07/04 06:32:57;;;;;;;5.43;2.90;;;21.00;60.10;;;;;;4999575;28;20030;-64
2023/07/04 06:35:23;;;;;;;6.50;2.80;;;21.00;60.20;;;;;;5001313;28;20048;-65
2023/07/04 06:37:48;;;;;;;3.35;2.40;;;20.90;60.20;;;;;;5002069;28;20113;-65
2023/07/04 06:40:14;;;;;;;3.47;2.72;;;21.00;60.20;;;;;;5005333;28;20034;-64
2023/07/04 06:42:40;;;;;;;3.05;2.55;;;21.00;60.00;;;;;;5002318;28;20030;-65
2023/07/04 06:45:06;;;;;;;3.35;2.80;;;21.00;60.20;;;;;;5005017;28;20224;-65
2023/07/04 06:47:31;;;;;;;3.60;2.97;;;21.00;60.00;;;;;;5003442;28;20687;-65
2023/07/04 06:49:57;;;;;;;3.88;2.65;;;21.00;60.00;;;;;;5004084;28;20082;-65
2023/07/04 06:52:22;;;;;;;4.93;2.88;;;21.00;59.90;;;;;;5003417;28;20042;-65
2023/07/04 06:54:51;;;;;;;5.18;3.10;;;21.00;60.00;;;;;;5005232;28;20496;-62
2023/07/04 06:57:18;;;;;;;5.25;3.50;;;21.00;60.00;;;;;;5025979;28;20065;-65
2023/07/04 06:59:45;;;;;;;5.00;2.75;;;21.00;59.80;;;;;;5002539;28;20033;-66
2023/07/04 07:02:14;;;;;;;4.78;3.55;;;21.00;59.90;;;;;;5001177;28;20042;-68
2023/07/04 07:04:40;;;;;;;5.07;3.75;;;21.00;59.90;;;;;;5002730;28;20397;-68
2023/07/04 07:07:09;;;;;;;4.40;3.00;;;21.00;60.00;;;;;;5002120;28;20026;-67
2023/07/04 07:09:40;;;;;;;6.05;3.97;;;21.00;59.90;;;;;;5003325;28;20061;-68
2023/07/04 07:12:06;;;;;;;6.00;3.25;;;21.00;60.00;;;;;;4997325;28;20038;-66
2023/07/04 07:14:32;;;;;;;6.03;3.30;;;21.00;59.90;;;;;;5001556;28;20048;-66
2023/07/04 07:16:58;;;;;;;5.25;3.63;;;21.00;60.00;;;;;;4999289;28;20504;-66
2023/07/04 07:19:24;;;;;;;5.38;3.10;;;21.00;59.90;;;;;;5001975;28;20034;-67
2023/07/04 07:21:49;;;;;;;4.65;2.90;;;21.00;60.00;;;;;;5003082;28;20045;-66
2023/07/04 07:24:15;;;;;;;6.15;3.35;;;21.00;59.90;;;;;;5001639;28;20232;-66
2023/07/04 07:26:41;;;;;;;4.85;3.58;;;21.00;59.90;;;;;;5002316;28;20034;-65
2023/07/04 07:29:06;;;;;;;5.53;3.55;;;21.00;60.00;;;;;;5001587;28;20036;-67
2023/07/04 07:31:32;;;;;;;6.78;3.17;;;21.00;59.90;;;;;;5001120;28;20382;-67
2023/07/04 07:33:57;;;;;;;4.10;3.45;;;21.00;60.50;;;;;;5003336;28;20030;-67
2023/07/04 07:36:30;;;;;;;3.92;3.35;;;21.00;60.00;;;;;;5003053;28;20046;-66
2023/07/04 07:38:57;;;;;;;6.38;3.13;;;21.00;60.00;;;;;;5003063;28;20175;-66
2023/07/04 07:41:27;;;;;;;7.97;3.40;;;21.00;60.00;;;;;;5001004;28;20185;-67
2023/07/04 07:43:54;;;;;;;6.13;3.20;;;21.00;59.90;;;;;;5000930;28;20041;-66
2023/07/04 07:46:19;;;;;;;3.83;2.92;;;21.00;59.90;;;;;;5002312;28;20524;-64
2023/07/04 07:48:46;;;;;;;5.35;3.58;;;21.00;59.70;;;;;;5002788;28;20038;-66
2023/07/04 07:51:12;;;;;;;4.82;3.08;;;21.00;59.80;;;;;;5002332;28;20053;-65
2023/07/04 07:53:40;;;;;;;5.97;3.05;;;21.00;59.80;;;;;;5003030;28;20062;-64
2023/07/04 07:56:07;;;;;;;4.35;2.83;;;21.00;59.90;;;;;;4998355;28;20038;-66
2023/07/04 07:58:34;;;;;;;4.80;2.92;;;21.00;59.70;;;;;;5002533;28;20034;-67
2023/07/04 08:01:08;;;;;;;4.88;2.97;;;21.00;59.90;;;;;;5001015;28;20026;-65
2023/07/04 08:03:33;;;;;;;6.05;3.28;;;21.00;59.80;;;;;;4999324;28;20037;-66
2023/07/04 08:05:59;;;;;;;5.18;3.13;;;21.00;59.80;;;;;;5002117;28;20105;-66
2023/07/04 08:08:24;;;;;;;4.68;2.78;;;21.00;59.90;;;;;;4998538;28;20034;-66
2023/07/04 08:10:50;;;;;;;5.97;3.17;;;21.00;59.90;;;;;;5001649;28;20552;-66
2023/07/04 08:13:15;;;;;;;6.53;3.17;;;21.00;59.80;;;;;;5003276;28;20034;-66
2023/07/04 08:15:41;;;;;;;5.20;2.85;;;20.90;59.80;;;;;;5005651;28;20030;-66
2023/07/04 08:18:08;;;;;;;4.43;3.35;;;21.00;59.80;;;;;;5006711;28;20046;-67
2023/07/04 08:20:34;;;;;;;5.80;3.10;;;21.00;59.90;;;;;;5006770;28;20109;-66
2023/07/04 08:22:59;;;;;;;6.75;3.60;;;21.00;60.10;;;;;;5006345;28;20736;-66
2023/07/04 08:25:25;;;;;;;4.65;3.38;;;21.00;59.80;;;;;;5006239;28;20128;-66
2023/07/04 08:27:52;;;;;;;4.35;3.08;;;21.00;59.80;;;;;;5001874;28;20091;-66
2023/07/04 08:30:18;;;;;;;5.90;3.40;;;21.00;59.80;;;;;;5006012;28;20540;-66
2023/07/04 08:32:43;;;;;;;5.57;3.10;;;21.00;59.80;;;;;;5006106;28;20057;-66
2023/07/04 08:35:09;;;;;;;5.10;3.25;;;21.00;59.60;;;;;;5001580;28;20505;-67
2023/07/04 08:37:34;;;;;;;3.85;3.03;;;21.00;59.70;;;;;;5004705;28;20033;-65
2023/07/04 08:40:00;;;;;;;5.30;3.08;;;21.00;59.80;;;;;;5002766;28;20034;-66
2023/07/04 08:42:29;;;;;;;5.07;3.40;;;21.00;59.80;;;;;;5005071;28;20122;-66
2023/07/04 08:44:55;;;;;;;6.45;3.92;;;21.00;59.80;;;;;;5002805;28;20050;-66
2023/07/04 08:47:25;;;;;;;5.43;3.63;;;21.00;59.60;;;;;;5004256;28;20064;-66
2023/07/04 08:49:55;;;;;;;8.07;4.43;;;21.00;59.70;;;;;;5003969;28;20049;-66
2023/07/04 08:52:23;;;;;;;4.50;3.17;;;21.00;59.70;;;;;;5004618;28;20040;-66
2023/07/04 08:54:52;;;;;;;4.25;2.88;;;21.00;59.70;;;;;;5002702;28;20501;-67
2023/07/04 08:57:40;;;;;;;5.47;3.58;;;21.00;59.80;;;;;;5001143;28;20038;-67
2023/07/04 09:00:22;;;;;;;5.70;4.05;;;20.90;59.40;;;;;;5002323;28;20104;-66
2023/07/04 09:03:09;;;;;;;5.20;3.70;;;20.90;59.50;;;;;;5005409;28;20041;-67
2023/07/04 09:06:04;;;;;;;4.93;3.40;;;21.00;59.60;;;;;;4998879;28;20034;-66
2023/07/04 09:09:02;;;;;;;4.75;3.47;;;21.00;59.70;;;;;;5003998;28;20049;-66
2023/07/04 09:11:29;;;;;;;6.10;3.40;;;20.90;59.60;;;;;;4998595;28;20448;-64
2023/07/04 09:14:10;;;;;;;5.93;3.38;;;21.00;59.60;;;;;;5005021;28;20418;-66
2023/07/04 09:16:44;;;;;;;12.00;5.70;;;20.90;59.50;;;;;;4995291;28;20389;-67
2023/07/04 09:19:12;;;;;;;8.90;4.68;;;21.00;59.60;;;;;;5004323;28;20117;-66
2023/07/04 09:21:38;;;;;;;6.60;3.72;;;21.00;59.50;;;;;;5001472;28;20037;-67
2023/07/04 09:24:04;;;;;;;5.85;4.30;;;20.90;59.40;;;;;;5011220;28;20096;-67
2023/07/04 09:26:59;;;;;;;6.85;4.55;;;21.00;59.60;;;;;;5004757;28;20029;-66
2023/07/04 09:29:25;;;;;;;7.07;4.25;;;21.00;59.60;;;;;;4999620;28;20044;-66
2023/07/04 09:31:54;;;;;;;6.90;3.85;;;21.00;59.50;;;;;;5005756;28;20030;-66
2023/07/04 09:34:31;;;;;;;4.88;3.22;;;20.90;59.50;;;;;;4997831;28;20025;-66
2023/07/04 09:37:00;;;;;;;6.38;3.58;;;21.00;59.60;;;;;;5004355;28;20038;-66
2023/07/04 09:39:48;;;;;;;5.35;3.55;;;21.00;59.60;;;;;;5003788;28;20132;-66
2023/07/04 09:42:15;;;;;;;5.03;3.83;;;21.00;59.60;;;;;;5002800;28;20185;-66
2023/07/04 09:44:41;;;;;;;6.07;4.05;;;20.90;59.60;;;;;;5004336;28;20054;-66
2023/07/04 09:47:14;;;;;;;5.00;3.75;;;20.90;59.60;;;;;;5005072;28;20504;-66
2023/07/04 09:49:39;;;;;;;8.77;4.75;;;21.00;59.60;;;;;;5002850;28;20116;-72
2023/07/04 09:52:09;;;;;;;6.30;4.28;;;21.00;58.90;;;;;;5003225;28;20766;-65
2023/07/04 09:54:37;;;;;;;6.80;4.43;;;20.90;59.40;;;;;;5000411;28;20033;-65
2023/07/04 09:57:21;;;;;;;7.40;5.68;;;21.00;59.30;;;;;;5004412;28;20042;-67
2023/07/04 09:59:46;;;;;;;6.25;4.50;;;21.00;59.30;;;;;;5000657;28;20030;-67
2023/07/04 10:02:34;;;;;;;6.97;4.90;;;21.00;59.40;;;;;;5001431;28;20045;-67
2023/07/04 10:05:00;;;;;;;6.15;4.80;;;21.00;59.30;;;;;;4999800;28;20034;-66
2023/07/04 10:07:26;;;;;;;5.53;4.30;;;21.00;59.20;;;;;;5002788;28;20042;-67
2023/07/04 10:10:04;;;;;;;5.18;3.90;;;21.00;59.10;;;;;;5004263;28;20037;-66
2023/07/04 10:12:32;;;;;;;8.13;4.90;;;20.90;59.10;;;;;;5002159;28;20468;-66
2023/07/04 10:15:00;;;;;;;7.95;4.70;;;21.00;59.40;;;;;;5004191;28;20084;-67
2023/07/04 10:17:28;;;;;;;7.82;5.00;;;21.00;59.40;;;;;;5001799;28;20040;-67
2023/07/04 10:20:04;;;;;;;6.63;5.20;;;21.00;58.90;;;;;;5004470;28;20109;-67
2023/07/04 10:22:33;;;;;;;7.13;5.25;;;21.00;58.90;;;;;;5002090;28;20478;-66
2023/07/04 10:25:04;;;;;;;5.88;4.68;;;21.00;59.00;;;;;;5000436;28;20030;-66
2023/07/04 10:27:35;;;;;;;9.02;6.05;;;21.00;59.10;;;;;;5003660;28;20033;-67
2023/07/04 10:30:08;;;;;;;7.00;5.32;;;21.00;59.00;;;;;;4990773;28;20034;-66
2023/07/04 10:32:39;;;;;;;6.55;5.13;;;21.00;59.20;;;;;;5003943;28;20077;-66
2023/07/04 10:35:09;;;;;;;7.50;4.80;;;21.00;59.20;;;;;;4996340;28;20077;-68
2023/07/04 10:37:37;;;;;;;8.07;6.05;;;21.00;59.20;;;;;;4998586;28;20054;-68
2023/07/04 10:40:08;;;;;;;7.88;5.80;;;21.00;58.70;;;;;;5001830;28;20068;-66
2023/07/04 10:42:45;;;;;;;8.05;6.00;;;21.00;59.10;;;;;;5008606;28;20037;-66
2023/07/04 10:45:14;;;;;;;7.35;5.35;;;21.00;59.00;;;;;;4999173;28;20054;-66
2023/07/04 10:47:42;;;;;;;7.45;5.70;;;20.90;58.90;;;;;;5000760;28;20518;-67
2023/07/04 10:50:13;;;;;;;8.98;5.40;;;21.00;59.10;;;;;;5002476;28;20030;-67
2023/07/04 10:52:43;;;;;;;9.10;5.55;;;21.00;59.10;;;;;;5002869;28;20056;-66
2023/07/04 10:55:14;;;;;;;8.43;6.20;;;21.00;59.20;;;;;;5003744;28;20061;-66
2023/07/04 10:57:44;;;;;;;7.72;5.47;;;21.00;59.30;;;;;;5000152;28;20029;-66
2023/07/04 11:00:19;;;;;;;7.53;6.35;;;21.00;59.10;;;;;;5003285;28;20111;-63
2023/07/04 11:02:53;;;;;;;8.23;6.07;;;21.00;58.90;;;;;;5001724;28;20037;-67
2023/07/04 11:05:35;;;;;;;8.25;5.93;;;21.00;59.00;;;;;;4999268;28;20033;-66
2023/07/04 11:08:01;;;;;;;8.30;6.80;;;21.00;59.00;;;;;;5002885;28;20034;-66
2023/07/04 11:10:30;;;;;;;12.23;7.15;;;20.90;59.10;;;;;;5003765;28;20033;-63
2023/07/04 11:12:57;;;;;;;9.73;6.30;;;21.00;59.30;;;;;;5017497;28;20045;-67
2023/07/04 11:15:29;;;;;;;11.05;6.90;;;21.00;59.20;;;;;;5001347;28;20029;-67
2023/07/04 11:17:55;;;;;;;8.27;6.70;;;21.00;59.20;;;;;;5003192;28;22666;-67
2023/07/04 11:20:22;;;;;;;8.65;6.45;;;21.00;59.10;;;;;;5002453;28;20097;-67
2023/07/04 11:22:51;;;;;;;8.68;7.18;;;21.00;59.10;;;;;;5002488;28;20500;-67
2023/07/04 11:25:34;;;;;;;10.43;7.13;;;21.00;59.00;;;;;;5001235;28;20040;-66
2023/07/04 11:28:27;;;;;;;9.48;7.00;;;21.00;59.20;;;;;;5004051;28;20626;-66
2023/07/04 11:31:22;;;;;;;10.75;7.72;;;21.00;59.00;;;;;;5002042;28;20030;-66
2023/07/04 11:33:53;;;;;;;9.95;7.32;;;21.00;59.00;;;;;;5001242;28;20034;-66
2023/07/04 11:36:26;;;;;;;12.75;9.10;;;21.00;58.90;;;;;;4999889;28;20492;-66
2023/07/04 11:38:56;;;;;;;11.68;7.75;;;21.00;58.00;;;;;;4996035;28;20398;-66
2023/07/04 11:41:27;;;;;;;11.48;8.30;;;21.00;58.60;;;;;;5027365;28;20481;-66
2023/07/04 11:43:54;;;;;;;9.93;7.88;;;21.00;58.60;;;;;;5000940;28;20037;-66
2023/07/04 11:46:22;;;;;;;8.40;7.32;;;21.00;58.70;;;;;;4999353;28;20058;-66
2023/07/04 11:48:51;;;;;;;12.30;7.95;;;21.00;58.90;;;;;;4999007;28;20031;-66
2023/07/04 11:51:19;;;;;;;10.32;7.43;;;21.00;59.10;;;;;;5003225;28;20033;-66
2023/07/04 11:53:57;;;;;;;10.90;7.57;;;21.00;58.80;;;;;;5002879;28;20090;-66
2023/07/04 11:56:23;;;;;;;9.95;8.20;;;21.00;58.80;;;;;;5000730;28;20092;-66
2023/07/04 11:59:11;;;;;;;10.00;8.63;;;21.00;58.60;;;;;;4997457;28;21608;-66
2023/07/04 12:01:52;;;;;;;11.23;8.80;;;21.00;58.70;;;;;;5000949;28;20038;-66
2023/07/04 12:04:33;;;;;;;9.77;8.70;;;21.00;58.60;;;;;;5001968;28;20018;-62
2023/07/04 12:07:29;;;;;;;11.38;8.45;;;21.00;58.40;;;;;;5000917;28;20493;-66
2023/07/04 12:10:00;;;;;;;12.48;9.23;;;21.00;58.20;;;;;;4992637;28;20061;-66
2023/07/04 12:12:28;;;;;;;13.75;9.77;;;21.00;59.00;;;;;;5001362;28;20104;-66
2023/07/04 12:15:08;;;;;;;11.27;9.32;;;21.00;58.30;;;;;;5000655;28;20038;-66
2023/07/04 12:17:54;;;;;;;11.02;9.38;;;21.00;58.30;;;;;;4999829;28;20393;-66
2023/07/04 12:20:20;;;;;;;10.43;8.98;;;21.00;58.30;;;;;;4998246;28;20649;-66
2023/07/04 12:23:00;;;;;;;12.95;9.68;;;21.00;58.30;;;;;;5001387;28;20038;-66
2023/07/04 12:25:42;;;;;;;14.20;9.93;;;21.00;58.10;;;;;;4998782;28;20061;-65
2023/07/04 12:28:12;;;;;;;12.43;9.52;;;21.00;58.20;;;;;;5000801;28;20042;-67
2023/07/04 12:30:42;;;;;;;11.95;9.32;;;21.00;58.20;;;;;;5000920;28;20108;-66
2023/07/04 12:33:20;;;;;;;12.30;9.70;;;21.00;58.20;;;;;;5011606;28;20049;-67
2023/07/04 12:35:54;;;;;;;11.82;9.80;;;21.00;58.10;;;;;;5002251;28;20350;-66
2023/07/04 12:38:25;;;;;;;12.30;9.75;;;21.00;58.20;;;;;;4998390;28;20038;-66
2023/07/04 12:40:51;;;;;;;13.45;9.60;;;21.00;58.20;;;;;;5001340;28;20038;-65
2023/07/04 12:43:17;;;;;;;14.27;10.50;;;21.00;58.30;;;;;;5002248;28;20109;-66
2023/07/04 12:45:43;;;;;;;13.32;10.57;;;21.00;58.30;;;;;;4999524;28;20030;-66
2023/07/04 12:48:10;;;;;;;12.88;10.80;;;21.00;57.90;;;;;;4999064;28;20034;-66
2023/07/04 12:50:52;;;;;;;14.05;11.25;;;21.00;58.00;;;;;;5001276;28;20054;-67
2023/07/04 12:53:18;;;;;;;15.95;11.55;;;21.00;58.10;;;;;;4999136;28;20370;-66